sensor_id;sensor_type;location;lat;lon;timestamp;P1;durP1;ratioP1;P2;durP2;ratioP2
79308;SDS011;68767;53.078;7.386;2024-02-23T00:02:15;2.35;;;0.85;;
79308;SDS011;68767;53.078;7.386;2024-02-23T00:04:42;0.40;;;0.40;;
79308;SDS011;68767;53.078;7.386;2024-02-23T00:07:09;1.05;;;0.60;;
79308;SDS011;68767;53.078;7.386;2024-02-23T00:09:36;0.30;;;0.30;;
79308;SDS011;68767;53.078;7.386;2024-02-23T00:12:04;0.22;;;0.22;;
79308;SDS011;68767;53.078;7.386;2024-02-23T00:14:31;0.30;;;0.30;;
79308;SDS011;68767;53.078;7.386;2024-02-23T00:16:59;4.15;;;1.00;;
79308;SDS011;68767;53.078;7.386;2024-02-23T00:19:29;0.90;;;0.63;;
79308;SDS011;68767;53.078;7.386;2024-02-23T00:21:57;0.45;;;0.40;;
79308;SDS011;68767;53.078;7.386;2024-02-23T00:24:26;0.80;;;0.70;;
79308;SDS011;68767;53.078;7.386;2024-02-23T00:26:53;0.32;;;0.32;;
79308;SDS011;68767;53.078;7.386;2024-02-23T00:29:20;0.30;;;0.30;;
79308;SDS011;68767;53.078;7.386;2024-02-23T00:31:49;0.73;;;0.57;;
79308;SDS011;68767;53.078;7.386;2024-02-23T00:34:16;0.50;;;0.50;;
79308;SDS011;68767;53.078;7.386;2024-02-23T00:36:43;0.32;;;0.32;;
79308;SDS011;68767;53.078;7.386;2024-02-23T00:39:11;2.83;;;0.40;;
79308;SDS011;68767;53.078;7.386;2024-02-23T00:41:38;8.50;;;0.82;;
79308;SDS011;68767;53.078;7.386;2024-02-23T00:44:05;1.25;;;0.57;;
79308;SDS011;68767;53.078;7.386;2024-02-23T00:46:33;1.23;;;0.52;;
79308;SDS011;68767;53.078;7.386;2024-02-23T00:49:00;1.35;;;0.65;;
79308;SDS011;68767;53.078;7.386;2024-02-23T00:51:28;0.35;;;0.35;;
79308;SDS011;68767;53.078;7.386;2024-02-23T00:53:55;1.02;;;0.85;;
79308;SDS011;68767;53.078;7.386;2024-02-23T00:56:21;2.63;;;0.75;;
79308;SDS011;68767;53.078;7.386;2024-02-23T00:58:58;0.30;;;0.30;;
79308;SDS011;68767;53.078;7.386;2024-02-23T01:01:25;4.80;;;0.88;;
79308;SDS011;68767;53.078;7.386;2024-02-23T01:03:53;2.13;;;0.90;;
79308;SDS011;68767;53.078;7.386;2024-02-23T01:06:20;0.68;;;0.43;;
79308;SDS011;68767;53.078;7.386;2024-02-23T01:08:48;1.65;;;0.73;;
79308;SDS011;68767;53.078;7.386;2024-02-23T01:11:15;2.42;;;0.68;;
79308;SDS011;68767;53.078;7.386;2024-02-23T01:13:42;2.60;;;0.73;;
79308;SDS011;68767;53.078;7.386;2024-02-23T01:16:09;1.38;;;0.63;;
79308;SDS011;68767;53.078;7.386;2024-02-23T01:18:36;2.05;;;1.08;;
79308;SDS011;68767;53.078;7.386;2024-02-23T01:21:03;1.00;;;0.80;;
79308;SDS011;68767;53.078;7.386;2024-02-23T01:23:30;0.98;;;0.63;;
79308;SDS011;68767;53.078;7.386;2024-02-23T01:25:57;1.48;;;0.95;;
79308;SDS011;68767;53.078;7.386;2024-02-23T01:28:26;0.45;;;0.45;;
79308;SDS011;68767;53.078;7.386;2024-02-23T01:30:53;2.50;;;0.82;;
79308;SDS011;68767;53.078;7.386;2024-02-23T01:33:20;0.82;;;0.55;;
79308;SDS011;68767;53.078;7.386;2024-02-23T01:35:47;0.50;;;0.40;;
79308;SDS011;68767;53.078;7.386;2024-02-23T01:38:14;1.58;;;0.65;;
79308;SDS011;68767;53.078;7.386;2024-02-23T01:40:47;0.52;;;0.50;;
79308;SDS011;68767;53.078;7.386;2024-02-23T01:43:14;0.65;;;0.50;;
79308;SDS011;68767;53.078;7.386;2024-02-23T01:45:41;0.98;;;0.75;;
79308;SDS011;68767;53.078;7.386;2024-02-23T01:48:08;1.30;;;0.68;;
79308;SDS011;68767;53.078;7.386;2024-02-23T01:50:35;4.13;;;0.77;;
79308;SDS011;68767;53.078;7.386;2024-02-23T01:53:04;0.47;;;0.47;;
79308;SDS011;68767;53.078;7.386;2024-02-23T01:55:31;2.25;;;0.55;;
79308;SDS011;68767;53.078;7.386;2024-02-23T01:58:03;4.97;;;2.38;;
79308;SDS011;68767;53.078;7.386;2024-02-23T02:00:34;3.25;;;0.88;;
79308;SDS011;68767;53.078;7.386;2024-02-23T02:03:02;2.97;;;0.73;;
79308;SDS011;68767;53.078;7.386;2024-02-23T02:05:29;0.52;;;0.50;;
79308;SDS011;68767;53.078;7.386;2024-02-23T02:07:57;0.50;;;0.50;;
79308;SDS011;68767;53.078;7.386;2024-02-23T02:12:54;0.43;;;0.43;;
79308;SDS011;68767;53.078;7.386;2024-02-23T02:15:21;3.05;;;0.50;;
79308;SDS011;68767;53.078;7.386;2024-02-23T02:17:48;0.63;;;0.47;;
79308;SDS011;68767;53.078;7.386;2024-02-23T02:20:16;0.63;;;0.60;;
79308;SDS011;68767;53.078;7.386;2024-02-23T02:22:50;0.52;;;0.52;;
79308;SDS011;68767;53.078;7.386;2024-02-23T02:25:17;1.50;;;1.05;;
79308;SDS011;68767;53.078;7.386;2024-02-23T02:27:44;4.45;;;1.30;;
79308;SDS011;68767;53.078;7.386;2024-02-23T02:30:12;2.33;;;0.95;;
79308;SDS011;68767;53.078;7.386;2024-02-23T02:32:40;15.00;;;2.30;;
79308;SDS011;68767;53.078;7.386;2024-02-23T02:35:07;4.45;;;1.30;;
79308;SDS011;68767;53.078;7.386;2024-02-23T02:37:36;4.05;;;1.35;;
79308;SDS011;68767;53.078;7.386;2024-02-23T02:40:04;5.53;;;1.50;;
79308;SDS011;68767;53.078;7.386;2024-02-23T02:42:32;1.75;;;1.05;;
79308;SDS011;68767;53.078;7.386;2024-02-23T02:44:59;6.38;;;1.40;;
79308;SDS011;68767;53.078;7.386;2024-02-23T02:47:27;8.35;;;1.95;;
79308;SDS011;68767;53.078;7.386;2024-02-23T02:49:54;5.85;;;1.60;;
79308;SDS011;68767;53.078;7.386;2024-02-23T02:52:21;5.07;;;1.65;;
79308;SDS011;68767;53.078;7.386;2024-02-23T02:54:50;5.32;;;1.42;;
79308;SDS011;68767;53.078;7.386;2024-02-23T02:57:17;2.92;;;1.73;;
79308;SDS011;68767;53.078;7.386;2024-02-23T02:59:44;3.70;;;1.73;;
79308;SDS011;68767;53.078;7.386;2024-02-23T03:02:12;16.45;;;4.40;;
79308;SDS011;68767;53.078;7.386;2024-02-23T03:04:46;4.78;;;1.75;;
79308;SDS011;68767;53.078;7.386;2024-02-23T03:07:14;5.25;;;1.85;;
79308;SDS011;68767;53.078;7.386;2024-02-23T03:09:42;5.20;;;1.73;;
79308;SDS011;68767;53.078;7.386;2024-02-23T03:12:10;6.30;;;2.20;;
79308;SDS011;68767;53.078;7.386;2024-02-23T03:14:37;8.75;;;2.45;;
79308;SDS011;68767;53.078;7.386;2024-02-23T03:17:07;4.85;;;2.55;;
79308;SDS011;68767;53.078;7.386;2024-02-23T03:19:36;7.85;;;2.47;;
79308;SDS011;68767;53.078;7.386;2024-02-23T03:22:04;3.53;;;2.10;;
79308;SDS011;68767;53.078;7.386;2024-02-23T03:24:31;5.50;;;1.75;;
79308;SDS011;68767;53.078;7.386;2024-02-23T03:26:58;7.80;;;2.72;;
79308;SDS011;68767;53.078;7.386;2024-02-23T03:29:26;13.95;;;2.30;;
79308;SDS011;68767;53.078;7.386;2024-02-23T03:31:56;3.13;;;1.80;;
79308;SDS011;68767;53.078;7.386;2024-02-23T03:34:24;9.05;;;3.22;;
79308;SDS011;68767;53.078;7.386;2024-02-23T03:36:51;10.25;;;4.05;;
79308;SDS011;68767;53.078;7.386;2024-02-23T03:39:19;5.65;;;2.33;;
79308;SDS011;68767;53.078;7.386;2024-02-23T03:41:46;4.20;;;1.52;;
79308;SDS011;68767;53.078;7.386;2024-02-23T03:44:13;3.45;;;1.55;;
79308;SDS011;68767;53.078;7.386;2024-02-23T03:46:40;4.70;;;1.83;;
79308;SDS011;68767;53.078;7.386;2024-02-23T03:49:07;9.25;;;2.42;;
79308;SDS011;68767;53.078;7.386;2024-02-23T03:51:34;4.13;;;2.67;;
79308;SDS011;68767;53.078;7.386;2024-02-23T03:54:03;4.55;;;1.73;;
79308;SDS011;68767;53.078;7.386;2024-02-23T03:56:32;5.28;;;1.92;;
79308;SDS011;68767;53.078;7.386;2024-02-23T03:59:04;8.90;;;2.40;;
79308;SDS011;68767;53.078;7.386;2024-02-23T04:01:31;8.15;;;2.83;;
79308;SDS011;68767;53.078;7.386;2024-02-23T04:03:59;5.18;;;1.60;;
79308;SDS011;68767;53.078;7.386;2024-02-23T04:06:26;9.63;;;2.35;;
79308;SDS011;68767;53.078;7.386;2024-02-23T04:08:53;9.43;;;1.45;;
79308;SDS011;68767;53.078;7.386;2024-02-23T04:11:20;2.70;;;1.02;;
79308;SDS011;68767;53.078;7.386;2024-02-23T04:13:47;4.05;;;1.27;;
79308;SDS011;68767;53.078;7.386;2024-02-23T04:16:18;3.20;;;1.45;;
79308;SDS011;68767;53.078;7.386;2024-02-23T04:18:45;3.50;;;1.52;;
79308;SDS011;68767;53.078;7.386;2024-02-23T04:21:12;8.30;;;1.65;;
79308;SDS011;68767;53.078;7.386;2024-02-23T04:23:39;9.52;;;1.52;;
79308;SDS011;68767;53.078;7.386;2024-02-23T04:26:06;4.65;;;1.05;;
79308;SDS011;68767;53.078;7.386;2024-02-23T04:28:33;4.80;;;1.25;;
79308;SDS011;68767;53.078;7.386;2024-02-23T04:31:00;4.60;;;1.58;;
79308;SDS011;68767;53.078;7.386;2024-02-23T04:33:27;2.13;;;1.00;;
79308;SDS011;68767;53.078;7.386;2024-02-23T04:35:54;4.38;;;1.23;;
79308;SDS011;68767;53.078;7.386;2024-02-23T04:38:21;4.57;;;1.80;;
79308;SDS011;68767;53.078;7.386;2024-02-23T04:40:48;4.60;;;1.27;;
79308;SDS011;68767;53.078;7.386;2024-02-23T04:43:15;6.60;;;1.10;;
79308;SDS011;68767;53.078;7.386;2024-02-23T04:45:42;2.13;;;1.17;;
79308;SDS011;68767;53.078;7.386;2024-02-23T04:48:09;3.30;;;1.58;;
79308;SDS011;68767;53.078;7.386;2024-02-23T04:50:36;2.97;;;1.33;;
79308;SDS011;68767;53.078;7.386;2024-02-23T04:53:04;2.40;;;0.85;;
79308;SDS011;68767;53.078;7.386;2024-02-23T04:55:31;10.52;;;1.40;;
79308;SDS011;68767;53.078;7.386;2024-02-23T04:57:58;4.80;;;2.10;;
79308;SDS011;68767;53.078;7.386;2024-02-23T05:00:25;3.25;;;1.60;;
79308;SDS011;68767;53.078;7.386;2024-02-23T05:03:00;4.03;;;1.30;;
79308;SDS011;68767;53.078;7.386;2024-02-23T05:05:30;4.30;;;1.52;;
79308;SDS011;68767;53.078;7.386;2024-02-23T05:07:58;3.70;;;1.92;;
79308;SDS011;68767;53.078;7.386;2024-02-23T05:10:26;5.40;;;1.75;;
79308;SDS011;68767;53.078;7.386;2024-02-23T05:12:53;10.02;;;2.38;;
79308;SDS011;68767;53.078;7.386;2024-02-23T05:15:20;1.80;;;1.08;;
79308;SDS011;68767;53.078;7.386;2024-02-23T05:17:47;2.92;;;1.65;;
79308;SDS011;68767;53.078;7.386;2024-02-23T05:20:15;8.23;;;1.40;;
79308;SDS011;68767;53.078;7.386;2024-02-23T05:22:42;8.45;;;1.50;;
79308;SDS011;68767;53.078;7.386;2024-02-23T05:25:09;5.78;;;1.60;;
79308;SDS011;68767;53.078;7.386;2024-02-23T05:27:36;5.20;;;2.15;;
79308;SDS011;68767;53.078;7.386;2024-02-23T05:30:03;5.63;;;2.03;;
79308;SDS011;68767;53.078;7.386;2024-02-23T05:32:31;4.00;;;1.58;;
79308;SDS011;68767;53.078;7.386;2024-02-23T05:34:58;3.30;;;1.92;;
79308;SDS011;68767;53.078;7.386;2024-02-23T05:37:25;3.08;;;1.58;;
79308;SDS011;68767;53.078;7.386;2024-02-23T05:39:53;3.08;;;1.80;;
79308;SDS011;68767;53.078;7.386;2024-02-23T05:42:20;9.45;;;3.28;;
79308;SDS011;68767;53.078;7.386;2024-02-23T05:44:47;5.47;;;3.10;;
79308;SDS011;68767;53.078;7.386;2024-02-23T05:47:17;12.13;;;3.40;;
79308;SDS011;68767;53.078;7.386;2024-02-23T05:49:44;14.15;;;3.60;;
79308;SDS011;68767;53.078;7.386;2024-02-23T05:52:11;11.98;;;2.88;;
79308;SDS011;68767;53.078;7.386;2024-02-23T05:54:38;5.82;;;2.45;;
79308;SDS011;68767;53.078;7.386;2024-02-23T05:57:05;9.10;;;3.50;;
79308;SDS011;68767;53.078;7.386;2024-02-23T05:59:32;8.63;;;3.53;;
79308;SDS011;68767;53.078;7.386;2024-02-23T06:01:59;17.25;;;3.60;;
79308;SDS011;68767;53.078;7.386;2024-02-23T06:04:26;7.57;;;3.53;;
79308;SDS011;68767;53.078;7.386;2024-02-23T06:06:54;16.67;;;3.63;;
79308;SDS011;68767;53.078;7.386;2024-02-23T06:09:21;12.60;;;3.08;;
79308;SDS011;68767;53.078;7.386;2024-02-23T06:11:48;4.38;;;2.22;;
79308;SDS011;68767;53.078;7.386;2024-02-23T06:14:15;6.78;;;2.58;;
79308;SDS011;68767;53.078;7.386;2024-02-23T06:16:43;6.15;;;2.33;;
79308;SDS011;68767;53.078;7.386;2024-02-23T06:19:10;7.70;;;2.85;;
79308;SDS011;68767;53.078;7.386;2024-02-23T06:21:37;9.25;;;3.55;;
79308;SDS011;68767;53.078;7.386;2024-02-23T06:24:05;3.25;;;1.85;;
79308;SDS011;68767;53.078;7.386;2024-02-23T06:26:34;9.40;;;3.35;;
79308;SDS011;68767;53.078;7.386;2024-02-23T06:29:02;5.25;;;2.47;;
79308;SDS011;68767;53.078;7.386;2024-02-23T06:31:30;5.05;;;2.58;;
79308;SDS011;68767;53.078;7.386;2024-02-23T06:33:57;7.93;;;2.97;;
79308;SDS011;68767;53.078;7.386;2024-02-23T06:36:24;11.50;;;3.20;;
79308;SDS011;68767;53.078;7.386;2024-02-23T06:38:51;12.07;;;3.25;;
79308;SDS011;68767;53.078;7.386;2024-02-23T06:41:18;8.68;;;3.17;;
79308;SDS011;68767;53.078;7.386;2024-02-23T06:43:45;7.03;;;2.22;;
79308;SDS011;68767;53.078;7.386;2024-02-23T06:46:12;13.40;;;4.18;;
79308;SDS011;68767;53.078;7.386;2024-02-23T06:48:39;4.80;;;2.00;;
79308;SDS011;68767;53.078;7.386;2024-02-23T06:51:07;7.05;;;3.22;;
79308;SDS011;68767;53.078;7.386;2024-02-23T06:53:36;7.38;;;2.28;;
79308;SDS011;68767;53.078;7.386;2024-02-23T06:56:05;11.30;;;3.47;;
79308;SDS011;68767;53.078;7.386;2024-02-23T06:58:32;12.23;;;2.55;;
79308;SDS011;68767;53.078;7.386;2024-02-23T07:00:59;6.50;;;2.55;;
79308;SDS011;68767;53.078;7.386;2024-02-23T07:03:27;6.85;;;2.88;;
79308;SDS011;68767;53.078;7.386;2024-02-23T07:05:54;7.82;;;3.08;;
79308;SDS011;68767;53.078;7.386;2024-02-23T07:08:22;11.55;;;3.40;;
79308;SDS011;68767;53.078;7.386;2024-02-23T07:10:49;10.18;;;3.47;;
79308;SDS011;68767;53.078;7.386;2024-02-23T07:13:16;9.35;;;3.10;;
79308;SDS011;68767;53.078;7.386;2024-02-23T07:15:44;14.13;;;3.33;;
79308;SDS011;68767;53.078;7.386;2024-02-23T07:18:11;9.88;;;2.65;;
79308;SDS011;68767;53.078;7.386;2024-02-23T07:20:38;6.35;;;2.63;;
79308;SDS011;68767;53.078;7.386;2024-02-23T07:23:05;9.52;;;3.40;;
79308;SDS011;68767;53.078;7.386;2024-02-23T07:25:33;11.50;;;2.85;;
79308;SDS011;68767;53.078;7.386;2024-02-23T07:28:00;13.23;;;3.05;;
79308;SDS011;68767;53.078;7.386;2024-02-23T07:30:27;9.75;;;2.60;;
79308;SDS011;68767;53.078;7.386;2024-02-23T07:32:54;5.43;;;3.00;;
79308;SDS011;68767;53.078;7.386;2024-02-23T07:35:21;9.43;;;2.78;;
79308;SDS011;68767;53.078;7.386;2024-02-23T07:37:48;12.65;;;3.20;;
79308;SDS011;68767;53.078;7.386;2024-02-23T07:40:15;7.90;;;2.63;;
79308;SDS011;68767;53.078;7.386;2024-02-23T07:42:47;7.70;;;3.47;;
79308;SDS011;68767;53.078;7.386;2024-02-23T07:45:14;16.67;;;3.15;;
79308;SDS011;68767;53.078;7.386;2024-02-23T07:47:41;10.23;;;2.70;;
79308;SDS011;68767;53.078;7.386;2024-02-23T07:50:08;9.60;;;2.63;;
79308;SDS011;68767;53.078;7.386;2024-02-23T07:52:36;7.88;;;1.92;;
79308;SDS011;68767;53.078;7.386;2024-02-23T07:55:03;8.48;;;2.40;;
79308;SDS011;68767;53.078;7.386;2024-02-23T07:57:32;7.78;;;2.38;;
79308;SDS011;68767;53.078;7.386;2024-02-23T07:59:59;5.15;;;2.13;;
79308;SDS011;68767;53.078;7.386;2024-02-23T08:02:37;8.43;;;2.60;;
79308;SDS011;68767;53.078;7.386;2024-02-23T08:05:05;5.75;;;2.10;;
79308;SDS011;68767;53.078;7.386;2024-02-23T08:07:33;6.55;;;2.60;;
79308;SDS011;68767;53.078;7.386;2024-02-23T08:10:00;6.38;;;2.47;;
79308;SDS011;68767;53.078;7.386;2024-02-23T08:12:29;6.65;;;2.63;;
79308;SDS011;68767;53.078;7.386;2024-02-23T08:14:56;8.27;;;2.20;;
79308;SDS011;68767;53.078;7.386;2024-02-23T08:17:23;3.40;;;1.83;;
79308;SDS011;68767;53.078;7.386;2024-02-23T08:19:52;8.65;;;2.33;;
79308;SDS011;68767;53.078;7.386;2024-02-23T08:22:19;14.65;;;2.88;;
79308;SDS011;68767;53.078;7.386;2024-02-23T08:24:46;6.18;;;2.28;;
79308;SDS011;68767;53.078;7.386;2024-02-23T08:27:13;8.38;;;2.08;;
79308;SDS011;68767;53.078;7.386;2024-02-23T08:29:40;9.93;;;2.08;;
79308;SDS011;68767;53.078;7.386;2024-02-23T08:32:08;8.60;;;1.83;;
79308;SDS011;68767;53.078;7.386;2024-02-23T08:34:35;5.72;;;2.03;;
79308;SDS011;68767;53.078;7.386;2024-02-23T08:37:02;14.07;;;3.10;;
79308;SDS011;68767;53.078;7.386;2024-02-23T08:39:30;3.83;;;1.55;;
79308;SDS011;68767;53.078;7.386;2024-02-23T08:41:56;5.63;;;1.20;;
79308;SDS011;68767;53.078;7.386;2024-02-23T08:44:23;6.93;;;2.00;;
79308;SDS011;68767;53.078;7.386;2024-02-23T08:46:51;9.88;;;1.50;;
79308;SDS011;68767;53.078;7.386;2024-02-23T08:49:18;5.05;;;1.90;;
79308;SDS011;68767;53.078;7.386;2024-02-23T08:51:45;4.40;;;1.58;;
79308;SDS011;68767;53.078;7.386;2024-02-23T08:54:12;4.57;;;1.70;;
79308;SDS011;68767;53.078;7.386;2024-02-23T08:56:39;4.20;;;1.77;;
79308;SDS011;68767;53.078;7.386;2024-02-23T08:59:09;10.15;;;1.52;;
79308;SDS011;68767;53.078;7.386;2024-02-23T09:01:36;8.73;;;1.90;;
79308;SDS011;68767;53.078;7.386;2024-02-23T09:04:03;8.80;;;1.90;;
79308;SDS011;68767;53.078;7.386;2024-02-23T09:06:30;3.78;;;1.75;;
79308;SDS011;68767;53.078;7.386;2024-02-23T09:09:05;2.97;;;1.35;;
79308;SDS011;68767;53.078;7.386;2024-02-23T09:11:32;3.83;;;1.80;;
79308;SDS011;68767;53.078;7.386;2024-02-23T09:13:59;3.10;;;1.23;;
79308;SDS011;68767;53.078;7.386;2024-02-23T09:16:26;7.00;;;1.50;;
79308;SDS011;68767;53.078;7.386;2024-02-23T09:18:54;5.32;;;1.50;;
79308;SDS011;68767;53.078;7.386;2024-02-23T09:21:21;5.18;;;1.55;;
79308;SDS011;68767;53.078;7.386;2024-02-23T09:23:48;5.72;;;1.60;;
79308;SDS011;68767;53.078;7.386;2024-02-23T09:26:15;2.17;;;1.27;;
79308;SDS011;68767;53.078;7.386;2024-02-23T09:28:42;3.53;;;0.90;;
79308;SDS011;68767;53.078;7.386;2024-02-23T09:31:11;4.20;;;1.58;;
79308;SDS011;68767;53.078;7.386;2024-02-23T09:33:38;2.55;;;1.00;;
79308;SDS011;68767;53.078;7.386;2024-02-23T09:36:06;4.53;;;1.25;;
79308;SDS011;68767;53.078;7.386;2024-02-23T09:38:33;5.47;;;1.38;;
79308;SDS011;68767;53.078;7.386;2024-02-23T09:41:00;3.35;;;1.25;;
79308;SDS011;68767;53.078;7.386;2024-02-23T09:43:30;3.70;;;1.70;;
79308;SDS011;68767;53.078;7.386;2024-02-23T09:45:59;2.65;;;1.15;;
79308;SDS011;68767;53.078;7.386;2024-02-23T09:48:26;4.75;;;1.63;;
79308;SDS011;68767;53.078;7.386;2024-02-23T09:50:55;4.43;;;1.73;;
79308;SDS011;68767;53.078;7.386;2024-02-23T09:53:24;3.75;;;1.50;;
79308;SDS011;68767;53.078;7.386;2024-02-23T09:55:51;6.93;;;1.77;;
79308;SDS011;68767;53.078;7.386;2024-02-23T09:58:20;6.07;;;1.45;;
79308;SDS011;68767;53.078;7.386;2024-02-23T10:00:48;5.32;;;1.98;;
79308;SDS011;68767;53.078;7.386;2024-02-23T10:03:15;6.72;;;1.52;;
79308;SDS011;68767;53.078;7.386;2024-02-23T10:05:43;7.00;;;1.40;;
79308;SDS011;68767;53.078;7.386;2024-02-23T10:08:11;4.25;;;1.70;;
79308;SDS011;68767;53.078;7.386;2024-02-23T10:10:39;3.97;;;1.33;;
79308;SDS011;68767;53.078;7.386;2024-02-23T10:13:08;2.70;;;1.17;;
79308;SDS011;68767;53.078;7.386;2024-02-23T10:15:35;3.55;;;1.17;;
79308;SDS011;68767;53.078;7.386;2024-02-23T10:18:02;5.00;;;1.50;;
79308;SDS011;68767;53.078;7.386;2024-02-23T10:20:30;3.97;;;1.30;;
79308;SDS011;68767;53.078;7.386;2024-02-23T10:22:58;3.40;;;1.23;;
79308;SDS011;68767;53.078;7.386;2024-02-23T10:25:25;9.13;;;1.55;;
79308;SDS011;68767;53.078;7.386;2024-02-23T10:27:52;8.00;;;2.05;;
79308;SDS011;68767;53.078;7.386;2024-02-23T10:30:20;7.30;;;1.77;;
79308;SDS011;68767;53.078;7.386;2024-02-23T10:32:48;2.45;;;1.33;;
79308;SDS011;68767;53.078;7.386;2024-02-23T10:35:18;6.63;;;1.48;;
79308;SDS011;68767;53.078;7.386;2024-02-23T10:37:48;10.82;;;1.63;;
79308;SDS011;68767;53.078;7.386;2024-02-23T10:40:18;4.43;;;1.10;;
79308;SDS011;68767;53.078;7.386;2024-02-23T10:42:46;5.30;;;1.27;;
79308;SDS011;68767;53.078;7.386;2024-02-23T10:45:22;2.88;;;1.13;;
79308;SDS011;68767;53.078;7.386;2024-02-23T10:47:56;1.73;;;0.98;;
79308;SDS011;68767;53.078;7.386;2024-02-23T10:50:24;3.80;;;1.13;;
79308;SDS011;68767;53.078;7.386;2024-02-23T10:52:53;3.30;;;1.13;;
79308;SDS011;68767;53.078;7.386;2024-02-23T10:55:24;2.10;;;1.00;;
79308;SDS011;68767;53.078;7.386;2024-02-23T10:57:54;2.13;;;0.82;;
79308;SDS011;68767;53.078;7.386;2024-02-23T11:00:26;6.78;;;1.50;;
79308;SDS011;68767;53.078;7.386;2024-02-23T11:02:56;2.25;;;1.08;;
79308;SDS011;68767;53.078;7.386;2024-02-23T11:05:28;6.57;;;1.30;;
79308;SDS011;68767;53.078;7.386;2024-02-23T11:07:57;4.05;;;1.40;;
79308;SDS011;68767;53.078;7.386;2024-02-23T11:10:25;3.80;;;1.20;;
79308;SDS011;68767;53.078;7.386;2024-02-23T11:12:58;4.30;;;1.27;;
79308;SDS011;68767;53.078;7.386;2024-02-23T11:15:30;4.82;;;1.10;;
79308;SDS011;68767;53.078;7.386;2024-02-23T11:18:00;6.93;;;1.35;;
79308;SDS011;68767;53.078;7.386;2024-02-23T11:20:36;4.30;;;1.00;;
79308;SDS011;68767;53.078;7.386;2024-02-23T11:23:12;8.82;;;1.75;;
79308;SDS011;68767;53.078;7.386;2024-02-23T11:25:40;4.07;;;1.42;;
79308;SDS011;68767;53.078;7.386;2024-02-23T11:28:08;1.65;;;0.98;;
79308;SDS011;68767;53.078;7.386;2024-02-23T11:30:35;3.15;;;0.82;;
79308;SDS011;68767;53.078;7.386;2024-02-23T11:33:07;4.32;;;1.20;;
79308;SDS011;68767;53.078;7.386;2024-02-23T11:35:34;6.50;;;1.35;;
79308;SDS011;68767;53.078;7.386;2024-02-23T11:38:02;8.50;;;2.10;;
79308;SDS011;68767;53.078;7.386;2024-02-23T11:40:32;5.35;;;1.42;;
79308;SDS011;68767;53.078;7.386;2024-02-23T11:43:00;6.15;;;1.33;;
79308;SDS011;68767;53.078;7.386;2024-02-23T11:45:28;5.10;;;1.25;;
79308;SDS011;68767;53.078;7.386;2024-02-23T11:47:55;2.75;;;1.45;;
79308;SDS011;68767;53.078;7.386;2024-02-23T11:50:22;8.68;;;1.50;;
79308;SDS011;68767;53.078;7.386;2024-02-23T11:52:49;6.43;;;1.67;;
79308;SDS011;68767;53.078;7.386;2024-02-23T11:55:18;3.22;;;1.42;;
79308;SDS011;68767;53.078;7.386;2024-02-23T11:57:49;2.45;;;1.15;;
79308;SDS011;68767;53.078;7.386;2024-02-23T12:00:30;3.95;;;1.40;;
79308;SDS011;68767;53.078;7.386;2024-02-23T12:02:58;7.78;;;1.45;;
79308;SDS011;68767;53.078;7.386;2024-02-23T12:05:24;6.18;;;1.45;;
79308;SDS011;68767;53.078;7.386;2024-02-23T12:07:51;6.80;;;1.42;;
79308;SDS011;68767;53.078;7.386;2024-02-23T12:10:20;5.80;;;1.42;;
79308;SDS011;68767;53.078;7.386;2024-02-23T12:12:47;5.15;;;1.30;;
79308;SDS011;68767;53.078;7.386;2024-02-23T12:15:14;3.60;;;1.65;;
79308;SDS011;68767;53.078;7.386;2024-02-23T12:17:48;2.20;;;1.02;;
79308;SDS011;68767;53.078;7.386;2024-02-23T12:20:16;3.40;;;1.20;;
79308;SDS011;68767;53.078;7.386;2024-02-23T12:22:43;6.40;;;1.30;;
79308;SDS011;68767;53.078;7.386;2024-02-23T12:25:11;4.78;;;1.30;;
79308;SDS011;68767;53.078;7.386;2024-02-23T12:27:40;6.93;;;1.40;;
79308;SDS011;68767;53.078;7.386;2024-02-23T12:30:13;4.38;;;1.40;;
79308;SDS011;68767;53.078;7.386;2024-02-23T12:32:44;6.07;;;1.45;;
79308;SDS011;68767;53.078;7.386;2024-02-23T12:35:11;8.48;;;1.45;;
79308;SDS011;68767;53.078;7.386;2024-02-23T12:37:39;5.40;;;1.60;;
79308;SDS011;68767;53.078;7.386;2024-02-23T12:40:11;11.85;;;1.92;;
79308;SDS011;68767;53.078;7.386;2024-02-23T12:42:39;4.80;;;1.05;;
79308;SDS011;68767;53.078;7.386;2024-02-23T12:45:06;6.00;;;1.20;;
79308;SDS011;68767;53.078;7.386;2024-02-23T12:47:33;4.35;;;1.52;;
79308;SDS011;68767;53.078;7.386;2024-02-23T12:50:01;11.57;;;3.40;;
79308;SDS011;68767;53.078;7.386;2024-02-23T12:52:28;7.43;;;1.75;;
79308;SDS011;68767;53.078;7.386;2024-02-23T12:54:55;4.13;;;1.55;;
79308;SDS011;68767;53.078;7.386;2024-02-23T12:57:22;6.05;;;1.60;;
79308;SDS011;68767;53.078;7.386;2024-02-23T12:59:49;7.82;;;1.67;;
79308;SDS011;68767;53.078;7.386;2024-02-23T13:02:16;4.93;;;1.50;;
79308;SDS011;68767;53.078;7.386;2024-02-23T13:04:43;5.05;;;1.75;;
79308;SDS011;68767;53.078;7.386;2024-02-23T13:07:15;5.63;;;1.65;;
79308;SDS011;68767;53.078;7.386;2024-02-23T13:09:44;3.15;;;1.10;;
79308;SDS011;68767;53.078;7.386;2024-02-23T13:12:11;5.53;;;1.63;;
79308;SDS011;68767;53.078;7.386;2024-02-23T13:14:39;7.53;;;1.65;;
79308;SDS011;68767;53.078;7.386;2024-02-23T13:17:06;4.25;;;1.60;;
79308;SDS011;68767;53.078;7.386;2024-02-23T13:22:04;3.65;;;1.25;;
79308;SDS011;68767;53.078;7.386;2024-02-23T13:24:31;6.53;;;1.40;;
79308;SDS011;68767;53.078;7.386;2024-02-23T13:26:58;2.22;;;1.42;;
79308;SDS011;68767;53.078;7.386;2024-02-23T13:29:25;6.75;;;1.50;;
79308;SDS011;68767;53.078;7.386;2024-02-23T13:31:52;7.13;;;1.52;;
79308;SDS011;68767;53.078;7.386;2024-02-23T13:34:19;3.10;;;1.23;;
79308;SDS011;68767;53.078;7.386;2024-02-23T13:36:46;3.47;;;1.45;;
79308;SDS011;68767;53.078;7.386;2024-02-23T13:39:14;1.70;;;1.02;;
79308;SDS011;68767;53.078;7.386;2024-02-23T13:41:42;4.15;;;1.35;;
79308;SDS011;68767;53.078;7.386;2024-02-23T13:44:09;4.53;;;1.23;;
79308;SDS011;68767;53.078;7.386;2024-02-23T13:46:37;8.15;;;1.70;;
79308;SDS011;68767;53.078;7.386;2024-02-23T13:49:06;2.42;;;1.33;;
79308;SDS011;68767;53.078;7.386;2024-02-23T13:51:34;4.78;;;1.20;;
79308;SDS011;68767;53.078;7.386;2024-02-23T13:54:01;3.60;;;1.50;;
79308;SDS011;68767;53.078;7.386;2024-02-23T13:56:29;5.45;;;1.77;;
79308;SDS011;68767;53.078;7.386;2024-02-23T13:58:57;5.93;;;1.77;;
79308;SDS011;68767;53.078;7.386;2024-02-23T14:01:24;8.88;;;1.70;;
79308;SDS011;68767;53.078;7.386;2024-02-23T14:03:51;5.55;;;2.00;;
79308;SDS011;68767;53.078;7.386;2024-02-23T14:06:18;3.72;;;1.75;;
79308;SDS011;68767;53.078;7.386;2024-02-23T14:08:45;4.88;;;1.60;;
79308;SDS011;68767;53.078;7.386;2024-02-23T14:11:14;7.85;;;1.52;;
79308;SDS011;68767;53.078;7.386;2024-02-23T14:13:42;8.93;;;1.85;;
79308;SDS011;68767;53.078;7.386;2024-02-23T14:16:14;6.07;;;1.48;;
79308;SDS011;68767;53.078;7.386;2024-02-23T14:18:41;10.23;;;2.03;;
79308;SDS011;68767;53.078;7.386;2024-02-23T14:21:10;6.68;;;1.88;;
79308;SDS011;68767;53.078;7.386;2024-02-23T14:23:38;2.00;;;1.25;;
79308;SDS011;68767;53.078;7.386;2024-02-23T14:26:05;7.78;;;2.03;;
79308;SDS011;68767;53.078;7.386;2024-02-23T14:28:32;2.80;;;1.05;;
79308;SDS011;68767;53.078;7.386;2024-02-23T14:30:59;3.45;;;1.42;;
79308;SDS011;68767;53.078;7.386;2024-02-23T14:33:26;3.75;;;1.55;;
79308;SDS011;68767;53.078;7.386;2024-02-23T14:35:53;4.93;;;1.70;;
79308;SDS011;68767;53.078;7.386;2024-02-23T14:38:22;8.50;;;2.17;;
79308;SDS011;68767;53.078;7.386;2024-02-23T14:40:49;2.97;;;1.42;;
79308;SDS011;68767;53.078;7.386;2024-02-23T14:43:16;8.85;;;1.95;;
79308;SDS011;68767;53.078;7.386;2024-02-23T14:45:43;5.90;;;1.90;;
79308;SDS011;68767;53.078;7.386;2024-02-23T14:48:10;5.88;;;1.52;;
79308;SDS011;68767;53.078;7.386;2024-02-23T14:50:37;3.70;;;1.55;;
79308;SDS011;68767;53.078;7.386;2024-02-23T14:53:07;6.35;;;1.60;;
79308;SDS011;68767;53.078;7.386;2024-02-23T14:55:35;2.88;;;1.70;;